sensor_id;sensor_type;location;lat;lon;timestamp;P1;durP1;ratioP1;P2;durP2;ratioP2
20348;SDS011;10332;50.208;18.988;2022-12-29T00:00:21;9.30;;;4.95;;
20348;SDS011;10332;50.208;18.988;2022-12-29T00:03:08;11.30;;;4.97;;
20348;SDS011;10332;50.208;18.988;2022-12-29T00:05:36;9.82;;;4.95;;
20348;SDS011;10332;50.208;18.988;2022-12-29T00:08:04;10.70;;;5.50;;
20348;SDS011;10332;50.208;18.988;2022-12-29T00:10:31;10.63;;;5.35;;
20348;SDS011;10332;50.208;18.988;2022-12-29T00:13:00;9.75;;;5.00;;
20348;SDS011;10332;50.208;18.988;2022-12-29T00:15:45;12.23;;;5.70;;
20348;SDS011;10332;50.208;18.988;2022-12-29T00:18:13;9.00;;;5.43;;
20348;SDS011;10332;50.208;18.988;2022-12-29T00:20:40;11.10;;;5.65;;
20348;SDS011;10332;50.208;18.988;2022-12-29T00:23:27;12.57;;;5.78;;
20348;SDS011;10332;50.208;18.988;2022-12-29T00:26:14;12.20;;;6.20;;
20348;SDS011;10332;50.208;18.988;2022-12-29T00:29:02;16.88;;;7.70;;
20348;SDS011;10332;50.208;18.988;2022-12-29T00:31:49;17.10;;;7.72;;
20348;SDS011;10332;50.208;18.988;2022-12-29T00:34:35;18.05;;;7.53;;
20348;SDS011;10332;50.208;18.988;2022-12-29T00:37:21;14.00;;;7.20;;
20348;SDS011;10332;50.208;18.988;2022-12-29T00:40:09;15.75;;;7.95;;
20348;SDS011;10332;50.208;18.988;2022-12-29T00:42:55;17.38;;;8.15;;
20348;SDS011;10332;50.208;18.988;2022-12-29T00:45:41;15.63;;;8.02;;
20348;SDS011;10332;50.208;18.988;2022-12-29T00:48:08;15.95;;;7.88;;
20348;SDS011;10332;50.208;18.988;2022-12-29T00:50:36;18.42;;;7.97;;
20348;SDS011;10332;50.208;18.988;2022-12-29T00:53:03;16.80;;;7.53;;
20348;SDS011;10332;50.208;18.988;2022-12-29T00:55:31;15.35;;;7.85;;
20348;SDS011;10332;50.208;18.988;2022-12-29T00:58:03;15.52;;;7.72;;
20348;SDS011;10332;50.208;18.988;2022-12-29T01:00:30;18.67;;;7.70;;
20348;SDS011;10332;50.208;18.988;2022-12-29T01:02:58;15.05;;;7.57;;
20348;SDS011;10332;50.208;18.988;2022-12-29T01:05:26;16.58;;;7.82;;
20348;SDS011;10332;50.208;18.988;2022-12-29T01:07:53;14.23;;;6.95;;
20348;SDS011;10332;50.208;18.988;2022-12-29T01:10:21;15.32;;;6.93;;
20348;SDS011;10332;50.208;18.988;2022-12-29T01:12:48;15.05;;;7.20;;
20348;SDS011;10332;50.208;18.988;2022-12-29T01:15:17;12.77;;;6.47;;
20348;SDS011;10332;50.208;18.988;2022-12-29T01:17:44;18.65;;;7.30;;
20348;SDS011;10332;50.208;18.988;2022-12-29T01:20:12;14.15;;;7.07;;
20348;SDS011;10332;50.208;18.988;2022-12-29T01:22:40;18.02;;;6.75;;
20348;SDS011;10332;50.208;18.988;2022-12-29T01:25:09;12.75;;;6.32;;
20348;SDS011;10332;50.208;18.988;2022-12-29T01:27:36;16.25;;;7.30;;
20348;SDS011;10332;50.208;18.988;2022-12-29T01:30:04;17.15;;;7.65;;
20348;SDS011;10332;50.208;18.988;2022-12-29T01:32:32;15.95;;;7.90;;
20348;SDS011;10332;50.208;18.988;2022-12-29T01:35:00;16.27;;;6.90;;
20348;SDS011;10332;50.208;18.988;2022-12-29T01:37:27;17.92;;;7.78;;
20348;SDS011;10332;50.208;18.988;2022-12-29T01:39:55;15.80;;;7.25;;
20348;SDS011;10332;50.208;18.988;2022-12-29T01:42:23;14.57;;;7.22;;
20348;SDS011;10332;50.208;18.988;2022-12-29T01:44:55;14.38;;;6.85;;
20348;SDS011;10332;50.208;18.988;2022-12-29T01:47:47;14.65;;;6.55;;
20348;SDS011;10332;50.208;18.988;2022-12-29T01:50:30;14.88;;;6.95;;
20348;SDS011;10332;50.208;18.988;2022-12-29T01:53:13;13.95;;;6.85;;
20348;SDS011;10332;50.208;18.988;2022-12-29T01:55:55;16.48;;;7.13;;
20348;SDS011;10332;50.208;18.988;2022-12-29T01:58:32;15.50;;;6.78;;
20348;SDS011;10332;50.208;18.988;2022-12-29T02:01:05;16.42;;;7.90;;
20348;SDS011;10332;50.208;18.988;2022-12-29T02:03:33;15.10;;;7.43;;
20348;SDS011;10332;50.208;18.988;2022-12-29T02:06:18;15.95;;;6.63;;
20348;SDS011;10332;50.208;18.988;2022-12-29T02:08:53;13.52;;;6.50;;
20348;SDS011;10332;50.208;18.988;2022-12-29T02:11:23;14.70;;;7.15;;
20348;SDS011;10332;50.208;18.988;2022-12-29T02:13:54;12.35;;;6.32;;
20348;SDS011;10332;50.208;18.988;2022-12-29T02:16:34;14.40;;;6.90;;
20348;SDS011;10332;50.208;18.988;2022-12-29T02:22:27;14.75;;;7.28;;
20348;SDS011;10332;50.208;18.988;2022-12-29T02:31:41;18.63;;;8.10;;
20348;SDS011;10332;50.208;18.988;2022-12-29T02:37:13;13.77;;;7.25;;
20348;SDS011;10332;50.208;18.988;2022-12-29T02:40:10;13.95;;;7.15;;
20348;SDS011;10332;50.208;18.988;2022-12-29T02:43:08;13.65;;;6.53;;
20348;SDS011;10332;50.208;18.988;2022-12-29T02:48:38;12.07;;;6.57;;
20348;SDS011;10332;50.208;18.988;2022-12-29T02:51:21;12.13;;;6.38;;
20348;SDS011;10332;50.208;18.988;2022-12-29T02:53:58;12.85;;;6.88;;
20348;SDS011;10332;50.208;18.988;2022-12-29T02:56:45;15.65;;;7.38;;
20348;SDS011;10332;50.208;18.988;2022-12-29T02:59:12;11.18;;;6.68;;
20348;SDS011;10332;50.208;18.988;2022-12-29T03:11:05;14.70;;;7.35;;
20348;SDS011;10332;50.208;18.988;2022-12-29T03:14:16;17.38;;;8.82;;
20348;SDS011;10332;50.208;18.988;2022-12-29T03:17:18;19.85;;;8.98;;
20348;SDS011;10332;50.208;18.988;2022-12-29T03:20:04;17.58;;;8.68;;
20348;SDS011;10332;50.208;18.988;2022-12-29T03:22:41;13.65;;;7.97;;
20348;SDS011;10332;50.208;18.988;2022-12-29T03:25:25;15.13;;;8.40;;
20348;SDS011;10332;50.208;18.988;2022-12-29T03:28:11;15.02;;;8.18;;
20348;SDS011;10332;50.208;18.988;2022-12-29T03:30:48;13.32;;;7.82;;
20348;SDS011;10332;50.208;18.988;2022-12-29T03:33:17;12.10;;;7.90;;
20348;SDS011;10332;50.208;18.988;2022-12-29T03:35:52;14.52;;;7.75;;
20348;SDS011;10332;50.208;18.988;2022-12-29T03:38:44;12.65;;;7.32;;
20348;SDS011;10332;50.208;18.988;2022-12-29T03:41:30;14.13;;;8.05;;
20348;SDS011;10332;50.208;18.988;2022-12-29T03:43:59;13.98;;;8.00;;
20348;SDS011;10332;50.208;18.988;2022-12-29T03:46:27;11.88;;;6.85;;
20348;SDS011;10332;50.208;18.988;2022-12-29T03:48:55;16.05;;;8.98;;
20348;SDS011;10332;50.208;18.988;2022-12-29T03:51:22;16.73;;;9.85;;
20348;SDS011;10332;50.208;18.988;2022-12-29T03:53:49;17.58;;;8.93;;
20348;SDS011;10332;50.208;18.988;2022-12-29T03:56:17;18.42;;;9.65;;
20348;SDS011;10332;50.208;18.988;2022-12-29T03:58:44;17.70;;;9.63;;
20348;SDS011;10332;50.208;18.988;2022-12-29T04:01:12;22.13;;;10.88;;
20348;SDS011;10332;50.208;18.988;2022-12-29T04:03:39;17.23;;;8.77;;
20348;SDS011;10332;50.208;18.988;2022-12-29T04:06:07;17.30;;;10.30;;
20348;SDS011;10332;50.208;18.988;2022-12-29T04:08:34;20.25;;;10.63;;
20348;SDS011;10332;50.208;18.988;2022-12-29T04:11:02;16.58;;;8.70;;
20348;SDS011;10332;50.208;18.988;2022-12-29T04:13:30;18.77;;;8.70;;
20348;SDS011;10332;50.208;18.988;2022-12-29T04:15:58;14.10;;;7.90;;
20348;SDS011;10332;50.208;18.988;2022-12-29T04:18:25;17.13;;;8.65;;
20348;SDS011;10332;50.208;18.988;2022-12-29T04:20:53;14.18;;;8.27;;
20348;SDS011;10332;50.208;18.988;2022-12-29T04:23:26;17.17;;;8.18;;
20348;SDS011;10332;50.208;18.988;2022-12-29T04:25:55;15.50;;;8.45;;
20348;SDS011;10332;50.208;18.988;2022-12-29T04:28:23;16.08;;;8.00;;
20348;SDS011;10332;50.208;18.988;2022-12-29T04:30:51;15.88;;;7.85;;
20348;SDS011;10332;50.208;18.988;2022-12-29T04:33:19;14.98;;;8.10;;
20348;SDS011;10332;50.208;18.988;2022-12-29T04:35:47;14.77;;;7.97;;
20348;SDS011;10332;50.208;18.988;2022-12-29T04:38:15;16.65;;;8.77;;
20348;SDS011;10332;50.208;18.988;2022-12-29T04:40:44;19.17;;;9.90;;
20348;SDS011;10332;50.208;18.988;2022-12-29T04:43:12;15.88;;;8.35;;
20348;SDS011;10332;50.208;18.988;2022-12-29T04:45:44;16.90;;;8.18;;
20348;SDS011;10332;50.208;18.988;2022-12-29T04:48:13;15.38;;;8.10;;
20348;SDS011;10332;50.208;18.988;2022-12-29T04:50:41;15.52;;;7.72;;
20348;SDS011;10332;50.208;18.988;2022-12-29T04:53:09;13.75;;;7.00;;
20348;SDS011;10332;50.208;18.988;2022-12-29T04:55:37;15.10;;;6.57;;
20348;SDS011;10332;50.208;18.988;2022-12-29T04:58:04;13.13;;;6.55;;
20348;SDS011;10332;50.208;18.988;2022-12-29T05:00:33;12.93;;;6.22;;
20348;SDS011;10332;50.208;18.988;2022-12-29T05:03:01;12.95;;;6.35;;
20348;SDS011;10332;50.208;18.988;2022-12-29T05:05:29;12.77;;;6.60;;
20348;SDS011;10332;50.208;18.988;2022-12-29T05:07:56;15.40;;;7.13;;
20348;SDS011;10332;50.208;18.988;2022-12-29T05:10:24;12.68;;;5.75;;
20348;SDS011;10332;50.208;18.988;2022-12-29T05:12:52;11.57;;;6.50;;
20348;SDS011;10332;50.208;18.988;2022-12-29T05:15:19;13.25;;;6.55;;
20348;SDS011;10332;50.208;18.988;2022-12-29T05:17:47;13.18;;;6.55;;
20348;SDS011;10332;50.208;18.988;2022-12-29T05:20:14;13.90;;;6.65;;
20348;SDS011;10332;50.208;18.988;2022-12-29T05:22:42;13.18;;;6.68;;
20348;SDS011;10332;50.208;18.988;2022-12-29T05:25:10;15.75;;;6.95;;
20348;SDS011;10332;50.208;18.988;2022-12-29T05:27:37;14.80;;;7.18;;
20348;SDS011;10332;50.208;18.988;2022-12-29T05:30:05;15.68;;;7.53;;
20348;SDS011;10332;50.208;18.988;2022-12-29T05:32:33;15.10;;;7.20;;
20348;SDS011;10332;50.208;18.988;2022-12-29T05:35:01;17.42;;;7.43;;
20348;SDS011;10332;50.208;18.988;2022-12-29T05:37:28;16.35;;;7.13;;
20348;SDS011;10332;50.208;18.988;2022-12-29T05:39:56;15.35;;;7.72;;
20348;SDS011;10332;50.208;18.988;2022-12-29T05:42:23;14.80;;;7.22;;
20348;SDS011;10332;50.208;18.988;2022-12-29T05:44:51;15.35;;;7.68;;
20348;SDS011;10332;50.208;18.988;2022-12-29T05:47:20;17.10;;;7.30;;
20348;SDS011;10332;50.208;18.988;2022-12-29T05:49:47;16.08;;;7.85;;
20348;SDS011;10332;50.208;18.988;2022-12-29T05:52:15;12.98;;;7.45;;
20348;SDS011;10332;50.208;18.988;2022-12-29T05:54:42;14.80;;;6.97;;
20348;SDS011;10332;50.208;18.988;2022-12-29T05:57:10;15.18;;;7.32;;
20348;SDS011;10332;50.208;18.988;2022-12-29T05:59:37;15.05;;;7.35;;
20348;SDS011;10332;50.208;18.988;2022-12-29T06:02:05;16.15;;;7.07;;
20348;SDS011;10332;50.208;18.988;2022-12-29T06:04:33;14.35;;;6.55;;
20348;SDS011;10332;50.208;18.988;2022-12-29T06:07:00;11.32;;;6.22;;
20348;SDS011;10332;50.208;18.988;2022-12-29T06:09:28;13.27;;;6.82;;
20348;SDS011;10332;50.208;18.988;2022-12-29T06:11:55;11.60;;;5.90;;
20348;SDS011;10332;50.208;18.988;2022-12-29T06:14:23;13.88;;;6.38;;
20348;SDS011;10332;50.208;18.988;2022-12-29T06:16:50;16.15;;;6.95;;
20348;SDS011;10332;50.208;18.988;2022-12-29T06:19:18;15.13;;;7.45;;
20348;SDS011;10332;50.208;18.988;2022-12-29T06:21:45;12.85;;;6.50;;
20348;SDS011;10332;50.208;18.988;2022-12-29T06:24:13;14.02;;;7.00;;
20348;SDS011;10332;50.208;18.988;2022-12-29T06:26:40;12.35;;;6.43;;
20348;SDS011;10332;50.208;18.988;2022-12-29T06:29:08;11.68;;;6.40;;
20348;SDS011;10332;50.208;18.988;2022-12-29T06:31:36;12.63;;;6.45;;
20348;SDS011;10332;50.208;18.988;2022-12-29T06:34:04;12.40;;;6.38;;
20348;SDS011;10332;50.208;18.988;2022-12-29T06:36:34;13.40;;;6.25;;
20348;SDS011;10332;50.208;18.988;2022-12-29T06:39:01;13.07;;;6.15;;
20348;SDS011;10332;50.208;18.988;2022-12-29T06:41:29;17.02;;;7.18;;
20348;SDS011;10332;50.208;18.988;2022-12-29T06:43:58;16.55;;;7.45;;
20348;SDS011;10332;50.208;18.988;2022-12-29T06:46:25;15.57;;;7.55;;
20348;SDS011;10332;50.208;18.988;2022-12-29T06:48:53;16.65;;;7.30;;
20348;SDS011;10332;50.208;18.988;2022-12-29T06:51:20;17.38;;;7.70;;
20348;SDS011;10332;50.208;18.988;2022-12-29T06:53:48;15.50;;;7.50;;
20348;SDS011;10332;50.208;18.988;2022-12-29T06:56:15;17.85;;;7.65;;
20348;SDS011;10332;50.208;18.988;2022-12-29T06:58:43;20.10;;;8.77;;
20348;SDS011;10332;50.208;18.988;2022-12-29T07:01:10;17.20;;;8.10;;
20348;SDS011;10332;50.208;18.988;2022-12-29T07:03:40;17.27;;;7.65;;
20348;SDS011;10332;50.208;18.988;2022-12-29T07:06:09;19.65;;;8.07;;
20348;SDS011;10332;50.208;18.988;2022-12-29T07:08:36;19.65;;;9.48;;
20348;SDS011;10332;50.208;18.988;2022-12-29T07:11:05;15.82;;;7.40;;
20348;SDS011;10332;50.208;18.988;2022-12-29T07:13:33;17.17;;;8.23;;
20348;SDS011;10332;50.208;18.988;2022-12-29T07:16:04;20.10;;;9.52;;
20348;SDS011;10332;50.208;18.988;2022-12-29T07:18:36;16.42;;;8.20;;
20348;SDS011;10332;50.208;18.988;2022-12-29T07:21:04;18.00;;;8.43;;
20348;SDS011;10332;50.208;18.988;2022-12-29T07:23:32;20.67;;;9.70;;
20348;SDS011;10332;50.208;18.988;2022-12-29T07:26:07;20.75;;;9.32;;
20348;SDS011;10332;50.208;18.988;2022-12-29T07:28:38;17.08;;;8.68;;
20348;SDS011;10332;50.208;18.988;2022-12-29T07:31:06;15.38;;;7.95;;
20348;SDS011;10332;50.208;18.988;2022-12-29T07:33:46;17.00;;;8.38;;
20348;SDS011;10332;50.208;18.988;2022-12-29T07:36:14;17.33;;;8.60;;
20348;SDS011;10332;50.208;18.988;2022-12-29T07:38:43;15.18;;;8.35;;
20348;SDS011;10332;50.208;18.988;2022-12-29T07:41:10;16.33;;;8.50;;
20348;SDS011;10332;50.208;18.988;2022-12-29T07:43:38;18.60;;;9.10;;
20348;SDS011;10332;50.208;18.988;2022-12-29T07:46:06;14.68;;;8.48;;
20348;SDS011;10332;50.208;18.988;2022-12-29T07:48:55;13.38;;;7.82;;
20348;SDS011;10332;50.208;18.988;2022-12-29T07:51:22;16.92;;;7.93;;
20348;SDS011;10332;50.208;18.988;2022-12-29T07:53:50;17.48;;;8.15;;
20348;SDS011;10332;50.208;18.988;2022-12-29T07:56:17;13.88;;;7.18;;
20348;SDS011;10332;50.208;18.988;2022-12-29T07:58:45;19.60;;;8.05;;
20348;SDS011;10332;50.208;18.988;2022-12-29T08:01:12;14.90;;;7.30;;
20348;SDS011;10332;50.208;18.988;2022-12-29T08:03:40;14.73;;;8.05;;
20348;SDS011;10332;50.208;18.988;2022-12-29T08:06:10;16.17;;;7.80;;
20348;SDS011;10332;50.208;18.988;2022-12-29T08:08:38;13.55;;;7.07;;
20348;SDS011;10332;50.208;18.988;2022-12-29T08:11:06;12.93;;;7.40;;
20348;SDS011;10332;50.208;18.988;2022-12-29T08:13:33;16.08;;;8.13;;
20348;SDS011;10332;50.208;18.988;2022-12-29T08:16:01;14.63;;;7.85;;
20348;SDS011;10332;50.208;18.988;2022-12-29T08:18:28;15.45;;;8.32;;
20348;SDS011;10332;50.208;18.988;2022-12-29T08:21:00;16.58;;;8.45;;
20348;SDS011;10332;50.208;18.988;2022-12-29T08:23:30;16.33;;;8.48;;
20348;SDS011;10332;50.208;18.988;2022-12-29T08:25:59;19.27;;;9.07;;
20348;SDS011;10332;50.208;18.988;2022-12-29T08:28:30;19.38;;;9.75;;
20348;SDS011;10332;50.208;18.988;2022-12-29T08:31:00;19.42;;;9.95;;
20348;SDS011;10332;50.208;18.988;2022-12-29T08:33:29;19.38;;;10.68;;
20348;SDS011;10332;50.208;18.988;2022-12-29T08:36:01;18.23;;;10.18;;
20348;SDS011;10332;50.208;18.988;2022-12-29T08:38:31;23.13;;;11.52;;
20348;SDS011;10332;50.208;18.988;2022-12-29T08:40:59;21.48;;;10.27;;
20348;SDS011;10332;50.208;18.988;2022-12-29T08:43:30;22.65;;;12.05;;
20348;SDS011;10332;50.208;18.988;2022-12-29T08:45:58;22.55;;;11.88;;
20348;SDS011;10332;50.208;18.988;2022-12-29T08:48:26;22.17;;;11.32;;
20348;SDS011;10332;50.208;18.988;2022-12-29T08:50:53;24.35;;;11.32;;
20348;SDS011;10332;50.208;18.988;2022-12-29T08:53:26;24.33;;;11.95;;
20348;SDS011;10332;50.208;18.988;2022-12-29T08:55:58;20.25;;;11.30;;
20348;SDS011;10332;50.208;18.988;2022-12-29T08:58:31;20.92;;;11.00;;
20348;SDS011;10332;50.208;18.988;2022-12-29T09:00:59;22.98;;;11.50;;
20348;SDS011;10332;50.208;18.988;2022-12-29T09:03:27;20.58;;;11.15;;
20348;SDS011;10332;50.208;18.988;2022-12-29T09:06:14;21.33;;;11.07;;
20348;SDS011;10332;50.208;18.988;2022-12-29T09:08:44;22.00;;;12.00;;
20348;SDS011;10332;50.208;18.988;2022-12-29T09:13:45;25.20;;;11.95;;
20348;SDS011;10332;50.208;18.988;2022-12-29T09:16:13;24.30;;;11.85;;
20348;SDS011;10332;50.208;18.988;2022-12-29T09:18:43;17.27;;;10.23;;
20348;SDS011;10332;50.208;18.988;2022-12-29T09:21:11;17.85;;;10.05;;
20348;SDS011;10332;50.208;18.988;2022-12-29T09:23:39;15.48;;;9.30;;
20348;SDS011;10332;50.208;18.988;2022-12-29T09:26:07;17.83;;;10.45;;
20348;SDS011;10332;50.208;18.988;2022-12-29T09:28:35;15.10;;;9.38;;
20348;SDS011;10332;50.208;18.988;2022-12-29T09:31:03;17.13;;;9.60;;
20348;SDS011;10332;50.208;18.988;2022-12-29T09:33:31;13.50;;;8.52;;
20348;SDS011;10332;50.208;18.988;2022-12-29T09:36:01;14.95;;;8.93;;
20348;SDS011;10332;50.208;18.988;2022-12-29T09:38:30;13.43;;;8.85;;
20348;SDS011;10332;50.208;18.988;2022-12-29T09:41:08;16.10;;;8.68;;
20348;SDS011;10332;50.208;18.988;2022-12-29T09:43:57;14.00;;;8.70;;
20348;SDS011;10332;50.208;18.988;2022-12-29T09:46:34;14.43;;;9.00;;
20348;SDS011;10332;50.208;18.988;2022-12-29T09:52:18;18.00;;;9.32;;
20348;SDS011;10332;50.208;18.988;2022-12-29T09:54:57;16.55;;;9.27;;
20348;SDS011;10332;50.208;18.988;2022-12-29T09:57:38;17.92;;;9.55;;
20348;SDS011;10332;50.208;18.988;2022-12-29T10:00:20;18.95;;;9.38;;
20348;SDS011;10332;50.208;18.988;2022-12-29T10:02:56;17.58;;;9.68;;
20348;SDS011;10332;50.208;18.988;2022-12-29T10:17:20;15.48;;;8.38;;
20348;SDS011;10332;50.208;18.988;2022-12-29T10:26:00;15.18;;;8.77;;
20348;SDS011;10332;50.208;18.988;2022-12-29T10:31:13;14.90;;;8.75;;
20348;SDS011;10332;50.208;18.988;2022-12-29T10:33:54;14.65;;;8.95;;
20348;SDS011;10332;50.208;18.988;2022-12-29T10:36:32;12.88;;;8.00;;
20348;SDS011;10332;50.208;18.988;2022-12-29T10:42:15;14.65;;;8.02;;
20348;SDS011;10332;50.208;18.988;2022-12-29T10:44:55;12.80;;;8.70;;
20348;SDS011;10332;50.208;18.988;2022-12-29T10:47:27;15.55;;;8.50;;
20348;SDS011;10332;50.208;18.988;2022-12-29T10:50:04;13.32;;;7.75;;
20348;SDS011;10332;50.208;18.988;2022-12-29T10:52:33;11.75;;;7.90;;
20348;SDS011;10332;50.208;18.988;2022-12-29T10:55:12;13.43;;;7.90;;
20348;SDS011;10332;50.208;18.988;2022-12-29T10:57:49;12.32;;;7.50;;
20348;SDS011;10332;50.208;18.988;2022-12-29T11:00:20;12.25;;;7.68;;
20348;SDS011;10332;50.208;18.988;2022-12-29T11:06:04;12.43;;;8.00;;
20348;SDS011;10332;50.208;18.988;2022-12-29T11:08:47;12.25;;;7.32;;
20348;SDS011;10332;50.208;18.988;2022-12-29T11:11:43;13.00;;;7.53;;
20348;SDS011;10332;50.208;18.988;2022-12-29T11:14:13;12.52;;;7.80;;
20348;SDS011;10332;50.208;18.988;2022-12-29T11:16:58;14.05;;;7.90;;
20348;SDS011;10332;50.208;18.988;2022-12-29T11:19:30;12.50;;;7.85;;
20348;SDS011;10332;50.208;18.988;2022-12-29T11:24:54;12.07;;;7.90;;
20348;SDS011;10332;50.208;18.988;2022-12-29T11:27:38;14.48;;;8.13;;
20348;SDS011;10332;50.208;18.988;2022-12-29T11:30:26;15.80;;;9.13;;
20348;SDS011;10332;50.208;18.988;2022-12-29T11:32:57;13.93;;;8.60;;
20348;SDS011;10332;50.208;18.988;2022-12-29T11:35:30;17.70;;;9.07;;
20348;SDS011;10332;50.208;18.988;2022-12-29T11:38:33;17.60;;;9.13;;
20348;SDS011;10332;50.208;18.988;2022-12-29T11:41:23;15.05;;;9.30;;
20348;SDS011;10332;50.208;18.988;2022-12-29T11:43:58;17.05;;;9.05;;
20348;SDS011;10332;50.208;18.988;2022-12-29T11:46:32;15.18;;;8.60;;
20348;SDS011;10332;50.208;18.988;2022-12-29T11:49:05;15.40;;;8.88;;
20348;SDS011;10332;50.208;18.988;2022-12-29T11:51:42;13.82;;;8.75;;
20348;SDS011;10332;50.208;18.988;2022-12-29T11:54:26;13.63;;;8.75;;
20348;SDS011;10332;50.208;18.988;2022-12-29T11:57:14;17.27;;;8.98;;
20348;SDS011;10332;50.208;18.988;2022-12-29T11:59:52;17.10;;;9.00;;
20348;SDS011;10332;50.208;18.988;2022-12-29T12:05:11;17.80;;;9.38;;
20348;SDS011;10332;50.208;18.988;2022-12-29T12:10:52;14.90;;;8.35;;
20348;SDS011;10332;50.208;18.988;2022-12-29T12:13:33;14.68;;;8.48;;
20348;SDS011;10332;50.208;18.988;2022-12-29T12:16:28;15.00;;;9.02;;
20348;SDS011;10332;50.208;18.988;2022-12-29T12:22:10;20.00;;;10.70;;
20348;SDS011;10332;50.208;18.988;2022-12-29T12:24:50;15.68;;;9.55;;
20348;SDS011;10332;50.208;18.988;2022-12-29T12:27:24;16.70;;;9.65;;
20348;SDS011;10332;50.208;18.988;2022-12-29T12:38:31;20.05;;;11.10;;
20348;SDS011;10332;50.208;18.988;2022-12-29T12:47:23;16.38;;;10.43;;
20348;SDS011;10332;50.208;18.988;2022-12-29T12:59:33;19.83;;;11.55;;
20348;SDS011;10332;50.208;18.988;2022-12-29T13:22:42;19.58;;;11.15;;
20348;SDS011;10332;50.208;18.988;2022-12-29T13:25:44;17.80;;;11.07;;
20348;SDS011;10332;50.208;18.988;2022-12-29T13:38:00;17.27;;;10.25;;
20348;SDS011;10332;50.208;18.988;2022-12-29T13:40:47;18.77;;;9.95;;
20348;SDS011;10332;50.208;18.988;2022-12-29T13:43:21;16.77;;;9.75;;
20348;SDS011;10332;50.208;18.988;2022-12-29T13:45:56;15.55;;;9.48;;
20348;SDS011;10332;50.208;18.988;2022-12-29T13:48:43;18.02;;;10.40;;
20348;SDS011;10332;50.208;18.988;2022-12-29T13:51:19;17.75;;;10.10;;
20348;SDS011;10332;50.208;18.988;2022-12-29T14:00:11;18.25;;;9.40;;
20348;SDS011;10332;50.208;18.988;2022-12-29T14:05:31;15.43;;;8.93;;
20348;SDS011;10332;50.208;18.988;2022-12-29T14:08:03;13.30;;;8.57;;
20348;SDS011;10332;50.208;18.988;2022-12-29T14:13:18;14.82;;;9.00;;
20348;SDS011;10332;50.208;18.988;2022-12-29T14:15:51;16.02;;;8.52;;
20348;SDS011;10332;50.208;18.988;2022-12-29T14:18:29;15.02;;;8.80;;
20348;SDS011;10332;50.208;18.988;2022-12-29T14:23:50;17.65;;;9.82;;
20348;SDS011;10332;50.208;18.988;2022-12-29T14:29:15;16.83;;;9.48;;
20348;SDS011;10332;50.208;18.988;2022-12-29T14:37:32;14.15;;;7.82;;
20348;SDS011;10332;50.208;18.988;2022-12-29T14:42:48;17.00;;;9.35;;
20348;SDS011;10332;50.208;18.988;2022-12-29T14:47:47;12.77;;;8.48;;
20348;SDS011;10332;50.208;18.988;2022-12-29T14:50:24;16.40;;;9.82;;
20348;SDS011;10332;50.208;18.988;2022-12-29T14:53:04;14.30;;;8.35;;
20348;SDS011;10332;50.208;18.988;2022-12-29T15:01:04;16.10;;;8.57;;
20348;SDS011;10332;50.208;18.988;2022-12-29T15:04:22;15.27;;;8.68;;
20348;SDS011;10332;50.208;18.988;2022-12-29T15:06:56;17.27;;;9.20;;
20348;SDS011;10332;50.208;18.988;2022-12-29T15:09:28;17.88;;;9.85;;
20348;SDS011;10332;50.208;18.988;2022-12-29T15:17:54;18.83;;;10.55;;
20348;SDS011;10332;50.208;18.988;2022-12-29T15:20:23;18.92;;;10.40;;
20348;SDS011;10332;50.208;18.988;2022-12-29T15:23:02;20.30;;;10.82;;
20348;SDS011;10332;50.208;18.988;2022-12-29T15:25:46;20.85;;;11.13;;
20348;SDS011;10332;50.208;18.988;2022-12-29T15:28:25;21.55;;;11.70;;
20348;SDS011;10332;50.208;18.988;2022-12-29T15:31:03;23.38;;;12.63;;
20348;SDS011;10332;50.208;18.988;2022-12-29T15:33:39;21.92;;;11.65;;
20348;SDS011;10332;50.208;18.988;2022-12-29T15:36:29;23.83;;;12.65;;
20348;SDS011;10332;50.208;18.988;2022-12-29T15:39:17;27.65;;;13.88;;
20348;SDS011;10332;50.208;18.988;2022-12-29T15:45:09;20.15;;;11.77;;
20348;SDS011;10332;50.208;18.988;2022-12-29T15:47:41;23.23;;;11.98;;
20348;SDS011;10332;50.208;18.988;2022-12-29T15:52:54;20.58;;;11.13;;
20348;SDS011;10332;50.208;18.988;2022-12-29T15:55:42;17.60;;;10.88;;
20348;SDS011;10332;50.208;18.988;2022-12-29T15:58:19;18.05;;;10.27;;
20348;SDS011;10332;50.208;18.988;2022-12-29T16:00:51;19.70;;;10.52;;
20348;SDS011;10332;50.208;18.988;2022-12-29T16:03:27;18.92;;;10.75;;
20348;SDS011;10332;50.208;18.988;2022-12-29T16:06:21;21.88;;;11.00;;
20348;SDS011;10332;50.208;18.988;2022-12-29T16:09:07;22.52;;;10.52;;
20348;SDS011;10332;50.208;18.988;2022-12-29T16:11:53;23.65;;;12.30;;
20348;SDS011;10332;50.208;18.988;2022-12-29T16:17:20;19.98;;;10.52;;
20348;SDS011;10332;50.208;18.988;2022-12-29T16:19:57;29.73;;;11.50;;
20348;SDS011;10332;50.208;18.988;2022-12-29T16:22:31;19.67;;;10.50;;
20348;SDS011;10332;50.208;18.988;2022-12-29T16:25:09;18.55;;;10.55;;
20348;SDS011;10332;50.208;18.988;2022-12-29T16:28:01;22.88;;;11.25;;
20348;SDS011;10332;50.208;18.988;2022-12-29T16:31:01;20.05;;;12.00;;
20348;SDS011;10332;50.208;18.988;2022-12-29T16:33:36;19.95;;;11.30;;
20348;SDS011;10332;50.208;18.988;2022-12-29T16:41:49;22.40;;;11.38;;
20348;SDS011;10332;50.208;18.988;2022-12-29T16:44:24;21.80;;;11.32;;
20348;SDS011;10332;50.208;18.988;2022-12-29T16:49:38;22.25;;;12.10;;
20348;SDS011;10332;50.208;18.988;2022-12-29T16:52:14;22.63;;;11.63;;
20348;SDS011;10332;50.208;18.988;2022-12-29T16:55:01;24.98;;;12.85;;
20348;SDS011;10332;50.208;18.988;2022-12-29T16:57:32;23.30;;;12.88;;
20348;SDS011;10332;50.208;18.988;2022-12-29T17:00:04;22.70;;;12.32;;
20348;SDS011;10332;50.208;18.988;2022-12-29T17:02:45;25.27;;;12.68;;
20348;SDS011;10332;50.208;18.988;2022-12-29T17:05:14;21.15;;;11.73;;
20348;SDS011;10332;50.208;18.988;2022-12-29T17:07:45;24.30;;;12.20;;
20348;SDS011;10332;50.208;18.988;2022-12-29T17:10:13;22.63;;;12.68;;
20348;SDS011;10332;50.208;18.988;2022-12-29T17:12:45;23.50;;;12.80;;
20348;SDS011;10332;50.208;18.988;2022-12-29T17:15:21;22.77;;;12.85;;
20348;SDS011;10332;50.208;18.988;2022-12-29T17:17:55;25.80;;;14.07;;
20348;SDS011;10332;50.208;18.988;2022-12-29T17:20:24;24.40;;;14.18;;
20348;SDS011;10332;50.208;18.988;2022-12-29T17:22:55;25.27;;;14.32;;
20348;SDS011;10332;50.208;18.988;2022-12-29T17:25:29;26.60;;;14.48;;
20348;SDS011;10332;50.208;18.988;2022-12-29T17:30:47;29.73;;;15.27;;
20348;SDS011;10332;50.208;18.988;2022-12-29T17:33:16;28.92;;;15.95;;
20348;SDS011;10332;50.208;18.988;2022-12-29T17:35:46;28.08;;;15.05;;
20348;SDS011;10332;50.208;18.988;2022-12-29T17:38:30;31.48;;;16.77;;
20348;SDS011;10332;50.208;18.988;2022-12-29T17:41:01;38.67;;;17.08;;
20348;SDS011;10332;50.208;18.988;2022-12-29T17:43:29;35.80;;;17.50;;
20348;SDS011;10332;50.208;18.988;2022-12-29T17:46:02;28.15;;;16.33;;
20348;SDS011;10332;50.208;18.988;2022-12-29T17:48:34;33.28;;;16.98;;
20348;SDS011;10332;50.208;18.988;2022-12-29T17:51:01;32.10;;;16.50;;
20348;SDS011;10332;50.208;18.988;2022-12-29T17:53:29;32.13;;;17.48;;
20348;SDS011;10332;50.208;18.988;2022-12-29T17:55:57;34.60;;;18.30;;
20348;SDS011;10332;50.208;18.988;2022-12-29T17:58:26;32.08;;;18.23;;